Time;durP1;ratioP1;P1;durP2;ratioP2;P2;SDS_P1;SDS_P2;PMS_P1;PMS_P2;Temp;Humidity;BMP_temperature;BMP_pressure;BME280_temperature;BME280_humidity;BME280_pressure;Samples;Min_cycle;Max_cycle;Signal;HPM_P1;HPM_P2
2023/04/07 00:01:56;;;;;;;1999.90;999.90;;;6.20;99.90;;;;;;5050125;28;20057;-75
2023/04/07 00:04:22;;;;;;;1999.90;999.90;;;6.20;99.90;;;;;;5034687;28;20494;-75
2023/04/07 00:06:47;;;;;;;1999.90;999.90;;;6.20;99.90;;;;;;5034686;28;20785;-76
2023/04/07 00:09:13;;;;;;;1999.90;999.90;;;6.20;99.90;;;;;;5034915;28;20484;-75
2023/04/07 00:11:38;;;;;;;1999.90;999.90;;;6.20;99.90;;;;;;5034830;28;20129;-75
2023/04/07 00:14:04;;;;;;;1999.90;999.90;;;6.20;99.90;;;;;;5049810;28;20038;-76
2023/04/07 00:16:30;;;;;;;1999.90;999.90;;;6.30;99.90;;;;;;5034790;28;20066;-76
2023/04/07 00:18:55;;;;;;;1999.90;999.90;;;6.20;99.90;;;;;;5034893;28;20034;-75
2023/04/07 00:21:21;;;;;;;1999.90;999.90;;;6.30;99.90;;;;;;5034867;28;20030;-75
2023/04/07 00:23:47;;;;;;;1999.90;999.90;;;6.30;99.90;;;;;;5049686;28;20084;-76
2023/04/07 00:26:12;;;;;;;1999.90;999.90;;;6.30;99.90;;;;;;5034354;28;20034;-75
2023/04/07 00:28:38;;;;;;;1999.90;999.90;;;6.30;99.90;;;;;;5034360;28;20041;-76
2023/04/07 00:31:03;;;;;;;1999.90;999.90;;;6.20;99.90;;;;;;5034668;28;20038;-75
2023/04/07 00:33:29;;;;;;;1999.90;999.90;;;6.20;99.90;;;;;;5033870;28;20034;-75
2023/04/07 00:35:56;;;;;;;1999.90;999.90;;;6.20;99.90;;;;;;5034044;28;20046;-75
2023/04/07 00:38:22;;;;;;;1999.90;999.90;;;6.30;99.90;;;;;;5033640;28;20359;-76
2023/04/07 00:40:47;;;;;;;1999.90;999.90;;;6.20;99.90;;;;;;5034991;28;20030;-75
2023/04/07 00:43:13;;;;;;;1999.90;999.90;;;6.30;99.90;;;;;;5034169;28;20026;-75
2023/04/07 00:45:38;;;;;;;1999.90;999.90;;;6.30;99.90;;;;;;5033559;28;20046;-75
2023/04/07 00:48:04;;;;;;;1999.90;999.90;;;6.30;99.90;;;;;;5049640;28;20026;-75
2023/04/07 00:50:30;;;;;;;1999.90;999.90;;;6.30;99.90;;;;;;5032888;28;20037;-76
2023/04/07 00:52:56;;;;;;;1999.90;999.90;;;6.20;99.90;;;;;;5034369;28;20034;-75
2023/04/07 00:55:22;;;;;;;1999.90;999.90;;;6.30;99.90;;;;;;5033741;28;20096;-75
2023/04/07 00:57:48;;;;;;;1999.90;999.90;;;6.30;99.90;;;;;;5049351;28;20034;-75
2023/04/07 01:00:14;;;;;;;1999.90;999.90;;;6.20;99.90;;;;;;5034259;28;20038;-76
2023/04/07 01:02:52;;;;;;;1999.90;999.90;;;6.20;99.90;;;;;;5034321;28;20026;-75
2023/04/07 01:05:41;;;;;;;1999.90;999.90;;;6.20;99.90;;;;;;5033722;28;20046;-75
2023/04/07 01:08:13;;;;;;;1999.90;999.90;;;6.30;99.90;;;;;;5032368;28;20036;-76
2023/04/07 01:11:22;;;;;;;1999.90;999.90;;;6.20;99.90;;;;;;5034126;28;20037;-76
2023/04/07 01:13:50;;;;;;;1999.90;999.90;;;6.20;99.90;;;;;;5033630;28;20042;-76
2023/04/07 01:16:22;;;;;;;1999.90;999.90;;;6.20;99.90;;;;;;5032369;28;20034;-75
2023/04/07 01:18:53;;;;;;;1999.90;999.90;;;6.20;99.90;;;;;;5034227;28;20140;-76
2023/04/07 01:21:20;;;;;;;1999.90;999.90;;;6.20;99.90;;;;;;5033927;28;20037;-75
2023/04/07 01:23:57;;;;;;;1999.90;999.90;;;6.20;99.90;;;;;;5033780;28;20045;-75
2023/04/07 01:26:27;;;;;;;1999.90;999.90;;;6.20;99.90;;;;;;5033842;28;20116;-75
2023/04/07 01:29:30;;;;;;;1999.90;999.90;;;6.20;99.90;;;;;;5032558;28;20029;-76
2023/04/07 01:31:58;;;;;;;1999.90;999.90;;;6.20;99.90;;;;;;5048954;28;20038;-76
2023/04/07 01:34:26;;;;;;;1999.90;999.90;;;6.20;99.90;;;;;;5033356;28;20049;-75
2023/04/07 01:36:53;;;;;;;1999.90;999.90;;;6.20;99.90;;;;;;5031874;28;20038;-76
2023/04/07 01:39:20;;;;;;;1999.90;999.90;;;6.20;99.90;;;;;;5033725;28;20034;-76
2023/04/07 01:41:46;;;;;;;1999.90;999.90;;;6.20;99.90;;;;;;5033801;28;20030;-76
2023/04/07 01:44:12;;;;;;;1999.90;999.90;;;6.20;99.90;;;;;;5033476;28;20034;-76
2023/04/07 01:46:38;;;;;;;1999.90;999.90;;;6.20;99.90;;;;;;5032121;28;20180;-75
2023/04/07 01:49:05;;;;;;;1999.90;999.90;;;6.30;99.90;;;;;;5034724;28;20160;-76
2023/04/07 01:51:31;;;;;;;1999.90;999.90;;;6.30;99.90;;;;;;5037182;28;20100;-75
2023/04/07 01:54:00;;;;;;;1999.90;999.90;;;6.30;99.90;;;;;;5036557;28;20025;-76
2023/04/07 01:56:26;;;;;;;1999.90;999.90;;;6.20;99.90;;;;;;5036551;28;20046;-75
2023/04/07 01:58:51;;;;;;;1999.90;999.90;;;6.30;99.90;;;;;;5037102;28;20036;-76
2023/04/07 02:01:17;;;;;;;1999.90;999.90;;;6.30;99.90;;;;;;5036867;28;20042;-76
2023/04/07 02:03:58;;;;;;;1999.90;999.90;;;6.30;99.90;;;;;;5036432;28;20038;-75
2023/04/07 02:06:30;;;;;;;1999.90;999.90;;;6.30;99.90;;;;;;5051570;28;20038;-75
2023/04/07 02:09:00;;;;;;;1999.90;999.90;;;6.30;99.90;;;;;;5036877;28;20488;-76
2023/04/07 02:11:26;;;;;;;1999.90;999.90;;;6.30;99.90;;;;;;5035373;28;20037;-76
2023/04/07 02:13:54;;;;;;;1999.90;999.90;;;6.30;99.90;;;;;;5035036;28;20096;-76
2023/04/07 02:16:20;;;;;;;1999.90;999.90;;;6.30;99.90;;;;;;5036682;28;20042;-76
2023/04/07 02:18:46;;;;;;;1999.90;999.90;;;6.30;99.90;;;;;;5036557;28;20053;-76
2023/04/07 02:21:14;;;;;;;1999.90;999.90;;;6.30;99.90;;;;;;5036670;28;20033;-75
2023/04/07 02:23:40;;;;;;;1999.90;999.90;;;6.30;99.90;;;;;;5036416;28;20072;-75
2023/04/07 02:26:06;;;;;;;1999.90;999.90;;;6.30;99.90;;;;;;5034708;28;20081;-76
2023/04/07 02:28:31;;;;;;;1999.90;999.90;;;6.30;99.90;;;;;;5036416;28;20084;-76
2023/04/07 02:30:57;;;;;;;1999.90;999.90;;;6.30;99.90;;;;;;5036321;28;20038;-75
2023/04/07 02:33:23;;;;;;;1999.90;999.90;;;6.30;99.90;;;;;;5036275;28;20034;-75
2023/04/07 02:35:48;;;;;;;1999.90;999.90;;;6.40;99.90;;;;;;5034155;28;20104;-75
2023/04/07 02:38:14;;;;;;;1999.90;999.90;;;6.30;99.90;;;;;;5051536;28;20030;-76
2023/04/07 02:40:39;;;;;;;1999.90;999.90;;;6.40;99.90;;;;;;5036394;28;20069;-75
2023/04/07 02:43:05;;;;;;;1999.90;999.90;;;6.30;99.90;;;;;;5036299;28;20038;-75
2023/04/07 02:45:31;;;;;;;1999.90;999.90;;;6.30;99.90;;;;;;5036061;28;20034;-76
2023/04/07 02:47:56;;;;;;;1999.90;999.90;;;6.40;99.90;;;;;;5036455;28;20034;-76
2023/04/07 02:50:22;;;;;;;1999.90;999.90;;;6.40;99.90;;;;;;5051369;28;20499;-75
2023/04/07 02:52:47;;;;;;;1999.90;999.90;;;6.40;99.90;;;;;;5036400;28;20085;-75
2023/04/07 02:55:13;;;;;;;1999.90;999.90;;;6.30;99.90;;;;;;5035735;28;20046;-75
2023/04/07 02:57:39;;;;;;;1999.90;999.90;;;6.30;99.90;;;;;;5036037;28;20030;-77
2023/04/07 03:00:05;;;;;;;1999.90;999.90;;;6.30;99.90;;;;;;5035599;28;20041;-75
2023/04/07 03:02:31;;;;;;;1999.90;999.90;;;6.30;99.90;;;;;;5035815;28;20034;-74
2023/04/07 03:04:56;;;;;;;1999.90;999.90;;;6.30;99.90;;;;;;5035379;28;20034;-75
2023/04/07 03:07:22;;;;;;;1999.90;999.90;;;6.30;99.90;;;;;;5036032;28;20030;-77
2023/04/07 03:09:47;;;;;;;1999.90;999.90;;;6.30;99.90;;;;;;5035692;28;20040;-77
2023/04/07 03:12:13;;;;;;;1999.90;999.90;;;6.30;99.90;;;;;;5035916;28;20038;-77
2023/04/07 03:14:38;;;;;;;1999.90;999.90;;;6.40;99.90;;;;;;5035469;28;20488;-75
2023/04/07 03:17:04;;;;;;;1999.90;999.90;;;6.40;99.90;;;;;;5035489;28;20042;-77
2023/04/07 03:19:29;;;;;;;1999.90;999.90;;;6.40;99.90;;;;;;5035743;28;20038;-77
2023/04/07 03:21:55;;;;;;;1999.90;999.90;;;6.40;99.90;;;;;;5050605;28;20033;-77
2023/04/07 03:24:20;;;;;;;1999.90;999.90;;;6.40;99.90;;;;;;5035349;28;20109;-77
2023/04/07 03:26:46;;;;;;;1999.90;999.90;;;6.40;99.90;;;;;;5035235;28;20038;-77
2023/04/07 03:29:12;;;;;;;1999.90;999.90;;;6.40;99.90;;;;;;5035745;28;20038;-77
2023/04/07 03:31:37;;;;;;;1999.90;999.90;;;6.40;99.90;;;;;;5035438;28;20529;-77
2023/04/07 03:34:03;;;;;;;1999.90;999.90;;;6.40;99.90;;;;;;5035215;28;20037;-77
2023/04/07 03:36:30;;;;;;;1999.90;999.90;;;6.30;99.90;;;;;;5049959;22;20096;-76
2023/04/07 03:38:56;;;;;;;1999.90;999.90;;;6.40;99.90;;;;;;5033986;28;20037;-75
2023/04/07 03:41:22;;;;;;;1999.90;999.90;;;6.40;99.90;;;;;;5035626;28;20030;-75
2023/04/07 03:43:48;;;;;;;1999.90;999.90;;;6.40;99.90;;;;;;5033647;28;20042;-75
2023/04/07 03:46:13;;;;;;;1999.90;999.90;;;6.30;99.90;;;;;;5033736;28;20026;-75
2023/04/07 03:48:39;;;;;;;1999.90;999.90;;;6.30;99.90;;;;;;5035617;28;20689;-75
2023/04/07 03:51:05;;;;;;;1999.90;999.90;;;6.40;99.90;;;;;;5034149;28;20085;-75
2023/04/07 03:53:31;;;;;;;1999.90;999.90;;;6.40;99.90;;;;;;5034219;28;20057;-75
2023/04/07 03:55:56;;;;;;;1999.90;999.90;;;6.40;99.90;;;;;;5034944;28;20034;-76
2023/04/07 03:58:22;;;;;;;1999.90;999.90;;;6.40;99.90;;;;;;5035359;28;20057;-76
2023/04/07 04:00:48;;;;;;;1999.90;999.90;;;6.40;99.90;;;;;;5035390;28;20091;-75
2023/04/07 04:03:13;;;;;;;1999.90;999.90;;;6.50;99.90;;;;;;5033708;28;20034;-75
2023/04/07 04:05:39;;;;;;;1999.90;999.90;;;6.40;99.90;;;;;;5034616;28;20037;-76
2023/04/07 04:08:05;;;;;;;1999.90;999.90;;;6.40;99.90;;;;;;5035253;28;20487;-76
2023/04/07 04:10:31;;;;;;;1999.90;999.90;;;6.40;99.90;;;;;;5033595;28;20056;-75
2023/04/07 04:12:59;;;;;;;1999.90;999.90;;;6.40;99.90;;;;;;5032333;28;20030;-75
2023/04/07 04:15:25;;;;;;;1999.90;999.90;;;6.40;99.90;;;;;;5034605;28;20435;-75
2023/04/07 04:17:50;;;;;;;1999.90;999.90;;;6.40;99.90;;;;;;5033583;28;20030;-75
2023/04/07 04:20:16;;;;;;;1999.90;999.90;;;6.40;99.90;;;;;;5035120;28;20060;-75
2023/04/07 04:22:41;;;;;;;1999.90;999.90;;;6.40;99.90;;;;;;5034970;28;20426;-75
2023/04/07 04:25:07;;;;;;;1999.90;999.90;;;6.40;99.90;;;;;;5034301;28;20080;-75
2023/04/07 04:27:33;;;;;;;1999.90;999.90;;;6.40;99.90;;;;;;5034454;28;20041;-75
2023/04/07 04:29:58;;;;;;;1999.90;999.90;;;6.40;99.90;;;;;;5034964;28;20033;-77
2023/04/07 04:32:24;;;;;;;1999.90;999.90;;;6.40;99.90;;;;;;5033432;28;20380;-75
2023/04/07 04:34:50;;;;;;;1999.90;999.90;;;6.40;99.90;;;;;;5034561;28;20109;-75
2023/04/07 04:37:15;;;;;;;1999.90;999.90;;;6.40;99.90;;;;;;5032858;28;20033;-75
2023/04/07 04:39:40;;;;;;;1999.90;999.90;;;6.40;99.90;;;;;;5033498;28;20034;-75
2023/04/07 04:42:06;;;;;;;1999.90;999.90;;;6.40;99.90;;;;;;5034916;28;20077;-75
2023/04/07 04:44:32;;;;;;;1999.90;999.90;;;6.40;99.90;;;;;;5034464;28;20546;-76
2023/04/07 04:46:57;;;;;;;1999.90;999.90;;;6.40;99.90;;;;;;5033031;28;20403;-75
2023/04/07 04:49:23;;;;;;;1999.90;999.90;;;6.40;99.90;;;;;;5034800;28;20087;-75
2023/04/07 04:51:48;;;;;;;1999.90;999.90;;;6.30;99.90;;;;;;5034654;28;20176;-75
2023/04/07 04:54:15;;;;;;;1999.90;999.90;;;6.30;99.90;;;;;;5034533;28;20065;-75
2023/04/07 04:56:41;;;;;;;1999.90;999.90;;;6.30;99.90;;;;;;5034432;28;20044;-75
2023/04/07 04:59:07;;;;;;;1999.90;999.90;;;6.30;99.90;;;;;;5034494;28;20544;-75
2023/04/07 05:01:32;;;;;;;1999.90;999.90;;;6.30;99.90;;;;;;5034907;28;20046;-78
2023/04/07 05:03:58;;;;;;;1999.90;999.90;;;6.30;99.90;;;;;;5034307;28;20045;-75
2023/04/07 05:06:23;;;;;;;1999.90;999.90;;;6.30;99.90;;;;;;5034279;28;20041;-75
2023/04/07 05:08:49;;;;;;;1999.90;999.90;;;6.20;99.90;;;;;;5034277;28;20033;-76
2023/04/07 05:11:15;;;;;;;1999.90;999.90;;;6.30;99.90;;;;;;5034267;28;20148;-75
2023/04/07 05:13:41;;;;;;;1999.90;999.90;;;6.30;99.90;;;;;;5034307;28;20069;-79
2023/04/07 05:16:06;;;;;;;1999.90;999.90;;;6.30;99.90;;;;;;5033662;28;20050;-75
2023/04/07 05:18:32;;;;;;;1999.90;999.90;;;6.30;99.90;;;;;;5032808;28;20112;-75
2023/04/07 05:20:57;;;;;;;1999.90;999.90;;;6.30;99.90;;;;;;5034199;28;20476;-74
2023/04/07 05:23:23;;;;;;;1999.90;999.90;;;6.30;99.90;;;;;;5034344;28;20387;-75
2023/04/07 05:25:49;;;;;;;1999.90;999.90;;;6.30;99.90;;;;;;5037066;28;20108;-75
2023/04/07 05:28:15;;;;;;;1999.90;999.90;;;6.30;99.90;;;;;;5037486;28;20041;-75
2023/04/07 05:30:40;;;;;;;1999.90;999.90;;;6.30;99.90;;;;;;5037532;28;20085;-75
2023/04/07 05:33:06;;;;;;;1999.90;999.90;;;6.30;99.90;;;;;;5036241;28;20069;-75
2023/04/07 05:35:31;;;;;;;1999.90;999.90;;;6.30;99.90;;;;;;5036870;28;20034;-75
2023/04/07 05:37:57;;;;;;;1999.90;999.90;;;6.30;99.90;;;;;;5037738;28;20037;-74
2023/04/07 05:40:23;;;;;;;1999.90;999.90;;;6.30;99.90;;;;;;5037671;28;20041;-75
2023/04/07 05:42:49;;;;;;;1999.90;999.90;;;6.30;99.90;;;;;;5037437;28;20033;-75
2023/04/07 05:45:14;;;;;;;1999.90;999.90;;;6.30;99.90;;;;;;5037055;28;20057;-75
2023/04/07 05:47:40;;;;;;;1999.90;999.90;;;6.40;99.90;;;;;;5035828;28;20036;-75
2023/04/07 05:50:06;;;;;;;1999.90;999.90;;;6.40;99.90;;;;;;5037231;28;20117;-74
2023/04/07 05:52:32;;;;;;;1999.90;999.90;;;6.40;99.90;;;;;;5037074;28;20030;-74
2023/04/07 05:54:57;;;;;;;1999.90;999.90;;;6.50;99.90;;;;;;5035402;28;20471;-75
2023/04/07 05:57:23;;;;;;;1999.90;999.90;;;6.50;99.90;;;;;;5037015;28;20510;-75
2023/04/07 05:59:48;;;;;;;1999.90;999.90;;;6.60;99.90;;;;;;5037194;28;20034;-75
2023/04/07 06:02:14;;;;;;;1999.90;999.90;;;6.60;99.90;;;;;;5036931;28;20125;-75
2023/04/07 06:04:39;;;;;;;1999.90;999.90;;;6.70;99.90;;;;;;5036652;28;20140;-75
2023/04/07 06:07:06;;;;;;;1999.90;999.90;;;6.90;99.90;;;;;;5037160;28;20399;-77
2023/04/07 06:09:31;;;;;;;1999.90;999.90;;;7.00;99.90;;;;;;5036984;28;20037;-75
2023/04/07 06:11:57;;;;;;;1999.90;999.90;;;7.00;99.90;;;;;;5037487;28;20046;-75
2023/04/07 06:14:23;;;;;;;1999.90;999.90;;;7.00;99.90;;;;;;5035474;28;20041;-75
2023/04/07 06:16:49;;;;;;;1999.90;999.90;;;7.00;99.90;;;;;;5037123;28;20105;-75
2023/04/07 06:19:14;;;;;;;1999.90;999.90;;;7.00;99.90;;;;;;5036959;28;20038;-77
2023/04/07 06:21:40;;;;;;;1999.90;999.90;;;7.00;99.90;;;;;;5035222;28;20068;-76
2023/04/07 06:24:06;;;;;;;1999.90;999.90;;;7.00;99.90;;;;;;5037401;28;20038;-75
2023/04/07 06:26:31;;;;;;;1999.90;999.90;;;7.00;99.90;;;;;;5037083;28;20038;-74
2023/04/07 06:28:58;;;;;;;1999.90;999.90;;;6.90;99.90;;;;;;5036895;28;20080;-75
2023/04/07 06:31:24;;;;;;;1999.90;999.90;;;6.80;99.90;;;;;;5036788;28;20038;-75
2023/04/07 06:33:50;;;;;;;1999.90;999.90;;;6.70;99.90;;;;;;5036793;28;20034;-75
2023/04/07 06:36:16;;;;;;;1999.90;999.90;;;6.70;99.90;;;;;;5034730;28;20042;-75
2023/04/07 06:38:41;;;;;;;1999.90;999.90;;;6.70;99.90;;;;;;5036608;28;20034;-75
2023/04/07 06:41:10;;;;;;;1999.90;999.90;;;6.60;99.90;;;;;;5036341;28;20033;-75
2023/04/07 06:43:36;;;;;;;1999.90;999.90;;;6.50;99.90;;;;;;5036330;28;20029;-76
2023/04/07 06:46:01;;;;;;;1999.90;999.90;;;6.50;99.90;;;;;;5036149;28;20496;-75
2023/04/07 06:48:27;;;;;;;1999.90;999.90;;;6.50;99.90;;;;;;5036506;28;20041;-74
2023/04/07 06:50:53;;;;;;;1999.90;999.90;;;6.50;99.90;;;;;;5035937;28;20407;-75
2023/04/07 06:53:18;;;;;;;1999.90;999.90;;;6.50;99.90;;;;;;5035980;28;20030;-75
2023/04/07 06:55:44;;;;;;;1999.90;999.90;;;6.50;99.90;;;;;;5035025;28;20046;-76
2023/04/07 06:58:09;;;;;;;1999.90;999.90;;;6.60;99.90;;;;;;5035840;28;20044;-75
2023/04/07 07:00:35;;;;;;;1999.90;999.90;;;6.70;99.90;;;;;;5035592;28;20041;-75
2023/04/07 07:03:01;;;;;;;1999.90;999.90;;;6.80;99.90;;;;;;5035774;28;20034;-77
2023/04/07 07:05:27;;;;;;;1999.90;999.90;;;6.80;99.90;;;;;;5036773;28;20041;-74
2023/04/07 07:07:53;;;;;;;1999.90;999.90;;;6.90;99.90;;;;;;5036728;28;20033;-74
2023/04/07 07:10:21;;;;;;;1999.90;999.90;;;7.10;99.90;;;;;;5039612;28;20096;-76
2023/04/07 07:12:48;;;;;;;1999.90;999.90;;;7.20;99.90;;;;;;5036196;28;20042;-77
2023/04/07 07:15:13;;;;;;;1999.90;999.90;;;7.40;99.90;;;;;;5034685;28;20081;-77
2023/04/07 07:17:39;;;;;;;1999.90;999.90;;;7.70;99.90;;;;;;5034045;28;20069;-75
2023/04/07 07:20:05;;;;;;;1999.90;999.90;;;8.00;99.90;;;;;;5037768;28;20030;-74
2023/04/07 07:22:30;;;;;;;1999.90;999.90;;;8.20;99.90;;;;;;5036829;28;20030;-75
2023/04/07 07:24:56;;;;;;;1999.90;999.90;;;8.60;99.90;;;;;;5035249;28;20034;-73
2023/04/07 07:27:21;;;;;;;1999.90;999.90;;;8.90;99.90;;;;;;5035588;28;20061;-73
2023/04/07 07:29:47;;;;;;;1999.90;999.90;;;9.20;99.90;;;;;;5035183;28;20484;-74
2023/04/07 07:32:12;;;;;;;1999.90;999.90;;;9.40;99.90;;;;;;5034217;28;20064;-78
2023/04/07 07:34:38;;;;;;;1999.90;999.90;;;9.50;99.90;;;;;;5035762;28;20384;-74
2023/04/07 07:37:04;;;;;;;1999.90;999.90;;;9.80;99.90;;;;;;5035551;28;20484;-78
2023/04/07 07:39:29;;;;;;;1999.90;999.90;;;9.90;99.90;;;;;;5037499;28;20547;-74
2023/04/07 07:41:55;;;;;;;1999.90;999.90;;;9.90;99.90;;;;;;5035054;28;20029;-75
2023/04/07 07:44:21;;;;;;;1999.90;999.90;;;9.90;99.90;;;;;;5035941;28;20062;-75
2023/04/07 07:46:47;;;;;;;1999.90;999.90;;;10.00;99.90;;;;;;5034596;28;20410;-75
2023/04/07 07:49:13;;;;;;;1999.90;999.90;;;10.20;99.90;;;;;;5035508;28;20034;-75
2023/04/07 07:51:39;;;;;;;1999.90;999.90;;;10.30;99.90;;;;;;5034950;28;20046;-75
2023/04/07 07:54:05;;;;;;;1999.90;999.90;;;10.10;99.90;;;;;;5033651;28;20422;-75
2023/04/07 07:56:30;;;;;;;1999.90;999.90;;;10.10;99.90;;;;;;5033548;28;20060;-75
2023/04/07 07:58:56;;;;;;;1999.90;999.90;;;10.00;99.90;;;;;;5035156;28;20037;-74
2023/04/07 08:01:21;;;;;;;1999.90;999.90;;;9.90;99.90;;;;;;5035133;28;20073;-74
2023/04/07 08:03:47;;;;;;;1999.90;999.90;;;9.80;99.90;;;;;;5035128;28;20065;-75
2023/04/07 08:06:12;;;;;;;1999.90;999.90;;;9.90;99.90;;;;;;5034715;28;20038;-72
2023/04/07 08:08:38;;;;;;;1999.90;999.90;;;9.90;99.90;;;;;;5035171;28;20029;-74
2023/04/07 08:11:04;;;;;;;1999.90;999.90;;;9.90;99.90;;;;;;5035011;28;20052;-74
2023/04/07 08:13:30;;;;;;;1999.90;999.90;;;10.00;99.90;;;;;;5034041;28;20097;-75
2023/04/07 08:15:55;;;;;;;1999.90;999.90;;;10.20;99.90;;;;;;5037118;28;20040;-74
2023/04/07 08:18:21;;;;;;;1999.90;999.90;;;10.30;99.90;;;;;;5037189;28;20483;-74
2023/04/07 08:20:47;;;;;;;1999.90;999.90;;;10.50;99.90;;;;;;5035179;28;20123;-75
2023/04/07 08:23:13;;;;;;;1999.90;999.90;;;10.60;99.90;;;;;;5037070;28;20039;-73
2023/04/07 08:25:39;;;;;;;1999.90;999.90;;;10.80;99.90;;;;;;5034607;28;20120;-73
2023/04/07 08:28:05;;;;;;;1999.90;999.90;;;11.00;99.90;;;;;;5045675;28;20029;-73
2023/04/07 08:30:31;;;;;;;1999.90;999.90;;;11.20;99.90;;;;;;5053991;28;20041;-74
2023/04/07 08:32:57;;;;;;;1999.90;999.90;;;11.40;99.90;;;;;;5035897;28;20411;-77
2023/04/07 08:35:22;;;;;;;1999.90;999.90;;;11.50;99.90;;;;;;5039048;28;20459;-74
2023/04/07 08:37:49;;;;;;;1999.90;999.90;;;11.80;99.90;;;;;;5053202;28;20040;-73
2023/04/07 08:40:15;;;;;;;1999.90;999.90;;;11.70;99.90;;;;;;5042597;28;20488;-74
2023/04/07 08:42:45;;;;;;;1999.90;999.90;;;11.70;99.90;;;;;;5049088;28;20038;-76
2023/04/07 08:45:12;;;;;;;1999.90;999.90;;;11.60;99.90;;;;;;5037328;28;20095;-74
2023/04/07 08:47:40;;;;;;;1999.90;999.90;;;11.70;99.90;;;;;;5047564;28;20084;-74
2023/04/07 08:50:08;;;;;;;1999.90;999.90;;;11.80;99.90;;;;;;5036024;28;20770;-76
2023/04/07 08:53:09;;;;;;;1999.90;999.90;;;11.90;99.90;;;;;;5035485;28;21553;-75
2023/04/07 08:55:35;;;;;;;1999.90;999.90;;;11.90;99.90;;;;;;4992653;28;20035;-75
2023/04/07 08:58:02;;;;;;;1999.90;999.90;;;11.70;99.90;;;;;;5026827;28;20069;-75
2023/04/07 09:00:28;;;;;;;1999.90;999.90;;;11.80;99.90;;;;;;5065930;28;21139;-76
2023/04/07 09:02:54;;;;;;;1999.90;999.90;;;11.90;99.90;;;;;;5043114;28;20025;-75
2023/04/07 09:05:21;;;;;;;1999.90;999.90;;;12.00;99.90;;;;;;5054266;28;20128;-76
2023/04/07 09:07:46;;;;;;;1999.90;999.90;;;11.80;99.90;;;;;;5044161;28;20132;-76
2023/04/07 09:10:12;;;;;;;1999.90;999.90;;;11.80;99.90;;;;;;5039220;28;20101;-76
2023/04/07 09:12:38;;;;;;;1999.90;999.90;;;11.80;99.90;;;;;;5057846;28;20033;-77
2023/04/07 09:15:06;;;;;;;1999.90;999.90;;;11.90;99.90;;;;;;5042171;28;20614;-77
2023/04/07 09:17:32;;;;;;;1999.90;999.90;;;12.00;99.90;;;;;;5042014;28;20502;-78
2023/04/07 09:19:59;;;;;;;1999.90;999.90;;;12.20;99.90;;;;;;5041504;28;20030;-75
2023/04/07 09:22:42;;;;;;;1999.90;999.90;;;12.10;99.90;;;;;;5040444;28;20030;-76
2023/04/07 09:25:16;;;;;;;1999.90;999.90;;;12.10;99.90;;;;;;5040400;28;20048;-77
2023/04/07 09:27:59;;;;;;;1999.90;999.90;;;11.90;99.90;;;;;;5042539;28;20108;-76
2023/04/07 09:30:26;;;;;;;1999.90;999.90;;;11.70;99.90;;;;;;5072481;28;20038;-76
2023/04/07 09:32:51;;;;;;;1999.90;999.90;;;11.70;99.90;;;;;;5040780;28;20503;-74
2023/04/07 09:35:17;;;;;;;1999.90;999.90;;;11.60;99.90;;;;;;5039684;28;20065;-76
2023/04/07 09:37:43;;;;;;;1999.90;999.90;;;11.60;99.90;;;;;;5040809;28;20483;-74
2023/04/07 09:40:09;;;;;;;1999.90;999.90;;;11.70;99.90;;;;;;5075488;28;20033;-75
2023/04/07 09:42:43;;;;;;;1999.90;999.90;;;11.80;99.90;;;;;;5058909;28;20040;-77
2023/04/07 09:45:09;;;;;;;1999.90;999.90;;;12.10;99.90;;;;;;5058309;28;20034;-77
2023/04/07 09:47:34;;;;;;;1999.90;999.90;;;12.40;99.90;;;;;;5060709;28;21185;-76
2023/04/07 09:50:05;;;;;;;1999.90;999.90;;;12.50;99.90;;;;;;5060297;28;20025;-77
2023/04/07 09:52:51;;;;;;;1999.90;999.90;;;12.40;99.90;;;;;;5060479;28;20069;-76
2023/04/07 09:55:21;;;;;;;1999.90;999.90;;;12.60;99.90;;;;;;5058560;28;20092;-78
2023/04/07 09:57:51;;;;;;;1999.90;999.90;;;12.80;99.90;;;;;;5060309;28;20029;-76
2023/04/07 10:00:17;;;;;;;1999.90;999.90;;;12.80;99.90;;;;;;5060643;28;20483;-77
2023/04/07 10:02:43;;;;;;;1999.90;999.90;;;13.20;99.90;;;;;;5060686;28;20487;-77
2023/04/07 10:05:10;;;;;;;1999.90;999.90;;;13.30;99.90;;;;;;5060392;28;20100;-79
2023/04/07 10:07:35;;;;;;;1999.90;999.90;;;13.20;99.90;;;;;;5061940;28;20499;-78
2023/04/07 10:10:03;;;;;;;1999.90;999.90;;;13.00;99.90;;;;;;5061445;28;20049;-78
2023/04/07 10:12:30;;;;;;;1999.90;999.90;;;12.60;99.90;;;;;;5056532;28;20074;-77
2023/04/07 10:14:59;;;;;;;1999.90;999.90;;;12.50;99.90;;;;;;5058025;28;20033;-78
2023/04/07 10:17:27;;;;;;;1999.90;999.90;;;12.60;99.90;;;;;;5034945;28;20033;-79
2023/04/07 10:19:55;;;;;;;1999.90;999.90;;;12.70;99.90;;;;;;5034866;28;20026;-77
2023/04/07 10:22:21;;;;;;;1999.90;999.90;;;13.10;99.90;;;;;;5035495;28;20037;-74
2023/04/07 10:24:58;;;;;;;1999.90;999.90;;;13.40;99.90;;;;;;5035767;28;20088;-76
2023/04/07 10:27:36;;;;;;;1999.90;999.90;;;13.60;99.90;;;;;;5035495;28;20042;-77
2023/04/07 10:30:06;;;;;;;1999.90;999.90;;;13.80;99.90;;;;;;5039808;28;20045;-81
2023/04/07 10:32:48;;;;;;;1999.90;999.90;;;14.00;99.90;;;;;;5039158;28;20038;-78
2023/04/07 10:35:14;;;;;;;1999.90;999.90;;;14.20;99.90;;;;;;5037362;28;20467;-78
2023/04/07 10:37:40;;;;;;;1999.90;999.90;;;14.40;99.90;;;;;;5038537;28;20038;-78
2023/04/07 10:40:17;;;;;;;1999.90;999.90;;;14.20;99.90;;;;;;5038990;28;20488;-78
2023/04/07 10:42:44;;;;;;;1999.90;999.90;;;14.60;99.90;;;;;;5040260;28;20026;-77
2023/04/07 10:45:11;;;;;;;1999.90;999.90;;;15.20;99.90;;;;;;5039327;28;20121;-79
2023/04/07 10:48:02;;;;;;;1999.90;999.90;;;15.60;99.90;;;;;;5034145;28;20491;-76
2023/04/07 10:50:28;;;;;;;1999.90;999.90;;;15.90;99.90;;;;;;5035442;28;20046;-77
2023/04/07 10:53:11;;;;;;;1999.90;999.90;;;16.20;98.90;;;;;;5035737;28;20022;-77
2023/04/07 10:55:37;;;;;;;1999.90;999.90;;;16.10;98.90;;;;;;5034943;28;20139;-77
2023/04/07 10:58:16;;;;;;;1999.90;999.90;;;16.00;97.00;;;;;;5035517;28;20562;-77
2023/04/07 11:01:03;;;;;;;1999.90;999.90;;;15.60;97.50;;;;;;5034895;28;20120;-77
2023/04/07 11:03:32;;;;;;;1999.90;999.90;;;15.70;96.30;;;;;;5036197;28;20032;-75
2023/04/07 11:06:12;;;;;;;1999.90;999.90;;;15.50;97.40;;;;;;5038598;28;20129;-80
2023/04/07 11:08:45;;;;;;;1999.90;999.90;;;15.80;97.10;;;;;;5034321;28;20030;-76
2023/04/07 11:11:31;;;;;;;1999.90;999.90;;;15.50;96.30;;;;;;5036695;28;20038;-79
2023/04/07 11:13:57;;;;;;;1999.90;999.90;;;15.10;99.20;;;;;;5046670;28;20030;-83
2023/04/07 11:16:37;;;;;;;1999.90;999.90;;;14.90;97.30;;;;;;5054759;28;20037;-81
2023/04/07 11:19:02;;;;;;;1999.90;999.90;;;15.00;97.70;;;;;;5056580;28;20026;-76
2023/04/07 11:21:30;;;;;;;1999.90;999.90;;;15.00;97.10;;;;;;5055945;28;20491;-76
2023/04/07 11:23:55;;;;;;;1999.90;999.90;;;15.70;96.30;;;;;;5056214;28;20048;-78
2023/04/07 11:26:22;;;;;;;1999.90;999.90;;;16.40;95.20;;;;;;5057167;28;20568;-78
2023/04/07 11:28:52;;;;;;;1999.90;999.90;;;16.30;97.00;;;;;;5058145;28;20084;-79
2023/04/07 11:31:26;;;;;;;1999.90;999.90;;;16.70;94.80;;;;;;5059260;28;20501;-79
2023/04/07 11:33:53;;;;;;;1999.90;999.90;;;16.70;95.10;;;;;;5056203;28;20486;-77
2023/04/07 11:36:27;;;;;;;1999.90;999.90;;;16.70;93.80;;;;;;5057694;28;20048;-79
2023/04/07 11:38:53;;;;;;;1999.90;999.90;;;16.90;95.10;;;;;;5057219;28;20037;-78
2023/04/07 11:41:18;;;;;;;1999.90;999.90;;;16.40;93.90;;;;;;5058912;28;20495;-79
2023/04/07 11:43:44;;;;;;;1999.90;999.90;;;16.60;93.40;;;;;;5055266;28;20041;-75
2023/04/07 11:46:15;;;;;;;1999.90;999.90;;;16.00;94.50;;;;;;5054946;28;20759;-75
2023/04/07 11:48:42;;;;;;;1999.90;999.90;;;15.40;94.10;;;;;;5053516;28;20033;-75
2023/04/07 11:51:18;;;;;;;1999.90;999.90;;;15.10;96.00;;;;;;5041521;28;20569;-75
2023/04/07 11:53:45;;;;;;;1999.90;999.90;;;15.10;96.20;;;;;;5035278;28;20452;-74
2023/04/07 11:56:17;;;;;;;1999.90;999.90;;;15.20;95.60;;;;;;5034880;28;20062;-75
2023/04/07 11:58:50;;;;;;;1999.90;999.90;;;15.30;94.30;;;;;;5035671;28;20479;-75
2023/04/07 12:01:16;;;;;;;1999.90;999.90;;;14.90;94.10;;;;;;5034764;28;20085;-75
2023/04/07 12:03:57;;;;;;;1999.90;999.90;;;15.00;97.90;;;;;;5033148;28;20392;-75
2023/04/07 12:06:33;;;;;;;1999.90;999.90;;;14.90;93.80;;;;;;5034226;28;20125;-75
2023/04/07 12:09:00;;;;;;;1999.90;999.90;;;15.70;93.80;;;;;;5034718;28;20120;-75